Time;durP1;ratioP1;P1;durP2;ratioP2;P2;SDS_P1;SDS_P2;PMS_P1;PMS_P2;Temp;Humidity;BMP_temperature;BMP_pressure;BME280_temperature;BME280_humidity;BME280_pressure;Samples;Min_cycle;Max_cycle;Signal;HPM_P1;HPM_P2
2021/12/28 00:01:52;;;;;;;24.17;14.38;;;-4.90;84.90;;;;;;6214292;23;20301;-65
2021/12/28 00:04:17;;;;;;;24.20;15.00;;;-4.90;85.10;;;;;;6214439;23;20055;-64
2021/12/28 00:06:43;;;;;;;25.50;15.27;;;-4.90;85.00;;;;;;6214283;23;20019;-65
2021/12/28 00:09:09;;;;;;;22.60;14.60;;;-4.90;84.80;;;;;;6214179;23;19997;-65
2021/12/28 00:11:35;;;;;;;23.92;15.23;;;-4.90;84.90;;;;;;6214246;23;20055;-65
2021/12/28 00:14:02;;;;;;;24.23;14.73;;;-4.90;84.90;;;;;;6214120;23;20466;-64
2021/12/28 00:16:32;;;;;;;23.85;15.18;;;-4.90;84.90;;;;;;6214043;23;20008;-65
2021/12/28 00:18:59;;;;;;;21.30;13.88;;;-4.90;84.80;;;;;;6214099;23;19996;-65
2021/12/28 00:21:25;;;;;;;21.30;12.70;;;-4.90;84.80;;;;;;6214125;23;20000;-64
2021/12/28 00:23:51;;;;;;;20.45;12.82;;;-4.90;84.80;;;;;;6213729;23;20000;-65
2021/12/28 00:26:17;;;;;;;23.08;14.10;;;-4.90;84.90;;;;;;6213951;23;20100;-65
2021/12/28 00:28:44;;;;;;;23.38;14.35;;;-4.90;84.60;;;;;;6214080;23;20454;-65
2021/12/28 00:31:15;;;;;;;23.02;14.43;;;-4.90;84.50;;;;;;6213971;23;20013;-65
2021/12/28 00:33:41;;;;;;;23.73;14.63;;;-4.90;84.50;;;;;;6214721;23;20042;-65
2021/12/28 00:36:07;;;;;;;26.17;14.25;;;-4.90;84.40;;;;;;6214915;23;20027;-66
2021/12/28 00:38:34;;;;;;;23.80;14.02;;;-4.90;84.40;;;;;;6213247;23;19997;-66
2021/12/28 00:41:03;;;;;;;24.73;14.93;;;-4.90;84.40;;;;;;6213627;23;20064;-64
2021/12/28 00:43:29;;;;;;;24.45;14.90;;;-4.90;84.40;;;;;;6214067;23;20778;-65
2021/12/28 00:45:55;;;;;;;23.92;14.05;;;-4.90;84.20;;;;;;6213952;23;19993;-64
2021/12/28 00:48:21;;;;;;;22.17;13.57;;;-4.90;84.30;;;;;;6213876;23;20063;-66
2021/12/28 00:50:48;;;;;;;21.02;12.80;;;-4.90;84.30;;;;;;6213771;23;20310;-66
2021/12/28 00:53:14;;;;;;;23.02;13.90;;;-4.90;84.30;;;;;;6214050;23;20015;-65
2021/12/28 00:55:40;;;;;;;21.55;13.68;;;-4.90;84.20;;;;;;6213619;23;20108;-65
2021/12/28 00:58:05;;;;;;;24.20;14.45;;;-4.90;83.90;;;;;;6213714;23;20498;-65
2021/12/28 01:00:34;;;;;;;24.55;14.68;;;-4.90;83.90;;;;;;6213567;23;20000;-65
2021/12/28 01:03:03;;;;;;;25.75;15.23;;;-4.90;83.90;;;;;;6213797;23;20392;-66
2021/12/28 01:05:30;;;;;;;27.05;15.55;;;-4.90;83.70;;;;;;6213472;23;20004;-64
2021/12/28 01:07:56;;;;;;;25.30;15.60;;;-4.90;83.50;;;;;;6213592;23;20008;-66
2021/12/28 01:10:25;;;;;;;25.27;14.77;;;-4.90;83.40;;;;;;6213655;23;20011;-66
2021/12/28 01:12:52;;;;;;;20.23;12.95;;;-4.90;83.70;;;;;;6213460;23;20008;-66
2021/12/28 01:15:19;;;;;;;25.30;14.60;;;-4.90;83.90;;;;;;6213675;23;20009;-65
2021/12/28 01:17:45;;;;;;;24.38;14.73;;;-4.90;83.90;;;;;;6213351;23;20008;-64
2021/12/28 01:20:13;;;;;;;23.35;14.68;;;-4.90;83.80;;;;;;6213447;23;20001;-65
2021/12/28 01:22:41;;;;;;;24.75;14.48;;;-4.90;83.70;;;;;;6212574;23;20381;-64
2021/12/28 01:25:08;;;;;;;23.05;13.85;;;-4.90;83.70;;;;;;6213448;23;20005;-64
2021/12/28 01:27:35;;;;;;;21.35;12.63;;;-4.90;83.70;;;;;;6213384;23;20444;-64
2021/12/28 01:30:00;;;;;;;20.35;13.00;;;-4.90;83.90;;;;;;6214269;23;20103;-64
2021/12/28 01:32:26;;;;;;;21.20;13.85;;;-4.80;83.80;;;;;;6213378;23;20432;-65
2021/12/28 01:34:52;;;;;;;21.13;13.27;;;-4.80;83.50;;;;;;6213167;23;20016;-65
2021/12/28 01:37:17;;;;;;;21.90;13.00;;;-4.80;83.50;;;;;;6213186;23;20008;-65
2021/12/28 01:39:43;;;;;;;20.85;13.30;;;-4.80;83.40;;;;;;6213380;23;20005;-64
2021/12/28 01:42:09;;;;;;;18.08;12.20;;;-4.70;83.40;;;;;;6213368;23;20000;-64
2021/12/28 01:44:35;;;;;;;20.38;12.82;;;-4.70;83.30;;;;;;6213157;23;20076;-64
2021/12/28 01:47:01;;;;;;;20.52;12.57;;;-4.70;83.20;;;;;;6213452;23;20000;-65
2021/12/28 01:49:27;;;;;;;21.10;13.50;;;-4.70;83.20;;;;;;6213125;23;20008;-64
2021/12/28 01:51:53;;;;;;;21.00;13.68;;;-4.70;83.10;;;;;;6213289;23;20338;-65
2021/12/28 01:54:19;;;;;;;19.48;12.90;;;-4.70;83.20;;;;;;6213193;23;20005;-65
2021/12/28 01:56:46;;;;;;;20.95;12.95;;;-4.70;83.10;;;;;;6213140;23;20080;-66
2021/12/28 01:59:15;;;;;;;19.20;12.52;;;-4.70;83.10;;;;;;6213109;23;19996;-65
2021/12/28 02:01:41;;;;;;;21.48;13.13;;;-4.70;83.10;;;;;;6212317;23;20012;-65
2021/12/28 02:04:33;;;;;;;19.88;13.07;;;-4.70;83.00;;;;;;6210623;23;20030;-64
2021/12/28 02:06:59;;;;;;;20.95;12.68;;;-4.70;82.60;;;;;;6206285;23;20008;-65
2021/12/28 02:09:25;;;;;;;20.10;12.32;;;-4.70;82.90;;;;;;6213538;23;20035;-64
2021/12/28 02:11:52;;;;;;;22.08;14.00;;;-4.70;83.00;;;;;;6212996;23;20039;-65
2021/12/28 02:14:21;;;;;;;20.83;13.25;;;-4.70;82.80;;;;;;6213090;23;20005;-64
2021/12/28 02:16:47;;;;;;;23.45;13.80;;;-4.70;82.90;;;;;;6186296;23;20149;-64
2021/12/28 02:19:14;;;;;;;20.15;12.90;;;-4.70;82.70;;;;;;6212997;23;19997;-65
2021/12/28 02:21:40;;;;;;;19.15;12.40;;;-4.80;82.60;;;;;;6212860;23;20001;-65
2021/12/28 02:24:08;;;;;;;21.30;12.75;;;-4.80;82.80;;;;;;6212891;23;20000;-64
2021/12/28 02:26:35;;;;;;;20.95;13.02;;;-4.80;83.10;;;;;;6212583;23;20092;-65
2021/12/28 02:29:01;;;;;;;21.05;13.52;;;-4.80;83.10;;;;;;6212897;23;20004;-65
2021/12/28 02:31:28;;;;;;;22.00;13.30;;;-4.80;82.90;;;;;;6213081;23;20004;-64
2021/12/28 02:33:53;;;;;;;20.35;13.15;;;-4.80;83.00;;;;;;6212725;23;20424;-64
2021/12/28 02:36:19;;;;;;;20.80;13.45;;;-4.80;82.80;;;;;;6212825;23;20016;-65
2021/12/28 02:38:46;;;;;;;24.10;13.80;;;-4.70;82.80;;;;;;6213099;23;19997;-66
2021/12/28 02:41:12;;;;;;;22.02;13.02;;;-4.80;82.90;;;;;;6213036;23;20000;-64
2021/12/28 02:43:40;;;;;;;21.85;14.10;;;-4.80;83.10;;;;;;6186133;23;20498;-64
2021/12/28 02:46:09;;;;;;;25.90;14.85;;;-4.80;82.90;;;;;;6210930;23;20432;-65
2021/12/28 02:48:37;;;;;;;22.13;14.18;;;-4.80;82.70;;;;;;6207390;23;20005;-65
2021/12/28 02:51:09;;;;;;;22.88;13.77;;;-4.80;82.60;;;;;;6206180;23;20067;-64
2021/12/28 02:53:35;;;;;;;20.77;13.50;;;-4.80;82.90;;;;;;6206182;23;20313;-65
2021/12/28 02:56:02;;;;;;;21.55;13.93;;;-4.80;83.10;;;;;;6206885;23;20055;-66
2021/12/28 02:58:32;;;;;;;21.95;13.93;;;-4.80;83.00;;;;;;6209513;23;20055;-65
2021/12/28 03:01:08;;;;;;;22.83;13.48;;;-4.80;83.00;;;;;;6212972;23;20383;-66
2021/12/28 03:03:35;;;;;;;22.52;13.55;;;-4.80;83.00;;;;;;6212923;23;20055;-64
2021/12/28 03:06:02;;;;;;;21.50;13.52;;;-4.80;82.70;;;;;;6212595;23;20427;-65
2021/12/28 03:08:30;;;;;;;21.55;13.68;;;-4.70;82.60;;;;;;6212850;23;20007;-64
2021/12/28 03:10:58;;;;;;;22.45;14.13;;;-4.70;82.50;;;;;;6212812;23;20001;-65
2021/12/28 03:13:32;;;;;;;23.30;14.77;;;-4.70;82.30;;;;;;6212666;23;20001;-65
2021/12/28 03:15:58;;;;;;;23.70;14.52;;;-4.70;82.10;;;;;;6212769;23;20027;-65
2021/12/28 03:18:24;;;;;;;21.13;14.00;;;-4.70;82.00;;;;;;6212707;23;20012;-66
2021/12/28 03:20:50;;;;;;;22.27;14.30;;;-4.70;81.80;;;;;;6212774;23;20104;-65
2021/12/28 03:23:18;;;;;;;22.48;14.60;;;-4.70;81.90;;;;;;6212717;23;19997;-64
2021/12/28 03:25:45;;;;;;;24.52;15.32;;;-4.70;81.90;;;;;;6212691;23;20013;-64
2021/12/28 03:28:20;;;;;;;23.70;15.65;;;-4.70;81.80;;;;;;6212741;23;20015;-64
2021/12/28 03:30:47;;;;;;;22.35;14.30;;;-4.70;81.70;;;;;;6212891;23;20055;-63
2021/12/28 03:33:13;;;;;;;23.23;14.57;;;-4.70;81.60;;;;;;6213991;23;20011;-65
2021/12/28 03:35:39;;;;;;;23.48;15.38;;;-4.80;81.70;;;;;;6214391;23;20009;-65
2021/12/28 03:38:05;;;;;;;23.88;15.35;;;-4.70;81.60;;;;;;6214207;23;20055;-64
2021/12/28 03:40:31;;;;;;;24.90;15.60;;;-4.70;81.40;;;;;;6214571;23;20005;-63
2021/12/28 03:42:57;;;;;;;23.77;14.70;;;-4.70;81.40;;;;;;6214444;23;20085;-65
2021/12/28 03:45:22;;;;;;;25.25;15.27;;;-4.70;81.80;;;;;;6214564;23;20135;-64
2021/12/28 03:47:48;;;;;;;26.02;15.63;;;-4.70;81.90;;;;;;6214416;23;20328;-64
2021/12/28 03:50:14;;;;;;;25.63;15.25;;;-4.70;81.70;;;;;;6214193;23;20008;-65
2021/12/28 03:52:40;;;;;;;24.35;14.82;;;-4.70;81.60;;;;;;6214607;23;20008;-64
2021/12/28 03:55:07;;;;;;;24.00;15.27;;;-4.70;81.60;;;;;;6214275;23;20328;-64
2021/12/28 03:57:33;;;;;;;24.98;15.43;;;-4.60;81.50;;;;;;6214178;23;20432;-64
2021/12/28 03:59:59;;;;;;;25.90;14.70;;;-4.60;81.30;;;;;;6214228;23;20004;-64
2021/12/28 04:02:25;;;;;;;24.15;15.15;;;-4.70;81.60;;;;;;6214444;23;19992;-65
2021/12/28 04:04:51;;;;;;;28.13;15.63;;;-4.60;81.50;;;;;;6213947;23;20068;-64
2021/12/28 04:07:20;;;;;;;24.77;15.07;;;-4.60;81.30;;;;;;6214356;23;20031;-65
2021/12/28 04:12:12;;;;;;;26.58;14.95;;;-4.60;80.80;;;;;;6224502;23;20005;-64
2021/12/28 04:14:38;;;;;;;22.40;14.27;;;-4.60;80.50;;;;;;6214087;23;20011;-65
2021/12/28 04:17:04;;;;;;;25.67;15.70;;;-4.60;80.70;;;;;;6214113;23;20032;-65
2021/12/28 04:19:30;;;;;;;28.27;15.90;;;-4.60;80.50;;;;;;6214118;23;20000;-64
2021/12/28 04:21:56;;;;;;;24.98;15.02;;;-4.60;80.30;;;;;;6213938;23;19997;-65
2021/12/28 04:24:22;;;;;;;24.88;15.15;;;-4.60;80.60;;;;;;6214009;23;20001;-64
2021/12/28 04:26:48;;;;;;;25.13;15.75;;;-4.60;80.70;;;;;;6214115;23;20460;-64
2021/12/28 04:29:13;;;;;;;27.15;16.00;;;-4.60;80.40;;;;;;6214377;23;20254;-64
2021/12/28 04:31:39;;;;;;;23.45;15.43;;;-4.60;79.80;;;;;;6213874;23;20008;-64
2021/12/28 04:34:05;;;;;;;27.63;16.30;;;-4.60;79.90;;;;;;6213564;23;20007;-64
2021/12/28 04:36:30;;;;;;;27.42;15.55;;;-4.60;79.70;;;;;;6214045;23;20011;-65
2021/12/28 04:38:56;;;;;;;23.70;14.98;;;-4.60;79.80;;;;;;6212942;23;20004;-64
2021/12/28 04:41:22;;;;;;;28.08;16.23;;;-4.60;79.90;;;;;;6213336;23;20007;-64
2021/12/28 04:43:48;;;;;;;27.38;16.38;;;-4.60;79.50;;;;;;6213448;23;20023;-64
2021/12/28 04:46:15;;;;;;;25.50;15.90;;;-4.60;79.40;;;;;;6213865;23;20371;-64
2021/12/28 04:48:40;;;;;;;21.90;14.40;;;-4.60;79.40;;;;;;6213759;23;19993;-63
2021/12/28 04:51:07;;;;;;;22.40;14.98;;;-4.60;79.60;;;;;;6213840;23;20111;-64
2021/12/28 04:53:33;;;;;;;25.90;15.82;;;-4.60;79.30;;;;;;6213674;23;20302;-65
2021/12/28 04:55:59;;;;;;;26.42;15.85;;;-4.60;79.00;;;;;;6213564;23;20011;-65
2021/12/28 04:58:25;;;;;;;22.73;14.95;;;-4.60;78.50;;;;;;6213697;23;20419;-66
2021/12/28 05:00:53;;;;;;;25.63;14.93;;;-4.70;78.50;;;;;;6213590;23;20004;-65
2021/12/28 05:03:20;;;;;;;23.77;14.80;;;-4.70;78.80;;;;;;6213310;23;20051;-65
2021/12/28 05:05:50;;;;;;;24.55;16.08;;;-4.70;79.20;;;;;;6213625;23;20008;-65
2021/12/28 05:08:16;;;;;;;25.20;15.40;;;-4.60;79.10;;;;;;6213597;23;20020;-65
2021/12/28 05:10:43;;;;;;;23.33;14.93;;;-4.60;79.00;;;;;;6213656;23;20004;-65
2021/12/28 05:13:09;;;;;;;23.27;14.88;;;-4.60;79.00;;;;;;6213610;23;20001;-64
2021/12/28 05:15:35;;;;;;;25.48;16.02;;;-4.60;79.10;;;;;;6213305;23;20433;-65
2021/12/28 05:18:01;;;;;;;25.42;15.75;;;-4.60;79.30;;;;;;6213340;23;20008;-65
2021/12/28 05:20:27;;;;;;;24.73;15.70;;;-4.60;79.40;;;;;;6213261;23;20472;-66
2021/12/28 05:22:53;;;;;;;29.17;15.63;;;-4.50;79.10;;;;;;6213506;23;20009;-65
2021/12/28 05:25:18;;;;;;;24.27;15.75;;;-4.50;79.10;;;;;;6213020;23;20023;-67
2021/12/28 05:27:44;;;;;;;26.05;16.10;;;-4.60;78.90;;;;;;6213323;23;20017;-65
2021/12/28 05:30:11;;;;;;;24.90;13.73;;;-4.60;78.90;;;;;;6213300;23;20004;-66
2021/12/28 05:32:37;;;;;;;23.23;14.40;;;-4.50;79.00;;;;;;6213458;23;20052;-66
2021/12/28 05:35:05;;;;;;;22.75;14.63;;;-4.50;79.00;;;;;;6213594;23;20434;-65
2021/12/28 05:37:31;;;;;;;24.20;15.30;;;-4.50;78.90;;;;;;6213360;23;20009;-65
2021/12/28 05:39:56;;;;;;;25.20;15.98;;;-4.50;78.90;;;;;;6213355;23;20004;-65
2021/12/28 05:42:22;;;;;;;24.80;15.55;;;-4.50;78.70;;;;;;6214197;23;20470;-65
2021/12/28 05:44:48;;;;;;;27.27;16.90;;;-4.50;78.30;;;;;;6212993;23;20324;-65
2021/12/28 05:47:14;;;;;;;27.42;17.02;;;-4.50;77.90;;;;;;6213212;23;20008;-66
2021/12/28 05:49:40;;;;;;;23.90;15.70;;;-4.50;78.10;;;;;;6213004;23;20007;-65
2021/12/28 05:52:06;;;;;;;23.95;15.48;;;-4.50;77.90;;;;;;6213183;23;20015;-66
2021/12/28 05:54:31;;;;;;;24.83;15.65;;;-4.50;77.70;;;;;;6212706;23;20331;-65
2021/12/28 05:56:57;;;;;;;26.88;16.50;;;-4.50;77.60;;;;;;6213015;23;20000;-66
2021/12/28 05:59:23;;;;;;;25.23;15.98;;;-4.50;77.30;;;;;;6213111;23;20001;-65
2021/12/28 06:01:48;;;;;;;25.90;15.73;;;-4.50;77.60;;;;;;6212829;23;20001;-65
2021/12/28 06:04:14;;;;;;;25.65;16.00;;;-4.50;77.80;;;;;;6213020;23;20024;-66
2021/12/28 06:06:40;;;;;;;26.88;16.73;;;-4.50;77.80;;;;;;6212938;23;20004;-65
2021/12/28 06:09:06;;;;;;;26.33;16.15;;;-4.50;77.80;;;;;;6210395;23;20036;-64
2021/12/28 06:11:32;;;;;;;24.25;15.40;;;-4.50;77.90;;;;;;6212546;23;20075;-65
2021/12/28 06:13:57;;;;;;;24.42;15.98;;;-4.50;77.60;;;;;;6212632;23;20045;-65
2021/12/28 06:16:23;;;;;;;26.67;15.65;;;-4.50;77.40;;;;;;6212768;23;20005;-66
2021/12/28 06:18:48;;;;;;;26.80;16.75;;;-4.50;77.50;;;;;;6212984;23;19996;-64
2021/12/28 06:21:14;;;;;;;24.63;15.50;;;-4.50;77.60;;;;;;6213401;23;20004;-65
2021/12/28 06:23:40;;;;;;;26.75;15.88;;;-4.50;77.40;;;;;;6212978;23;20076;-65
2021/12/28 06:26:05;;;;;;;20.58;13.73;;;-4.40;77.50;;;;;;6212898;23;20015;-65
2021/12/28 06:28:31;;;;;;;25.23;15.45;;;-4.40;77.80;;;;;;6212610;23;20005;-66
2021/12/28 06:30:58;;;;;;;23.25;14.70;;;-4.40;77.60;;;;;;6212837;23;20000;-69
2021/12/28 06:33:24;;;;;;;26.42;15.70;;;-4.40;77.40;;;;;;6212576;23;20005;-65
2021/12/28 06:35:50;;;;;;;24.38;15.75;;;-4.30;77.40;;;;;;6212462;23;20032;-65
2021/12/28 06:38:17;;;;;;;23.15;14.82;;;-4.40;77.30;;;;;;6212528;23;20028;-66
2021/12/28 06:40:43;;;;;;;23.85;15.20;;;-4.30;77.40;;;;;;6212810;23;20025;-66
2021/12/28 06:43:09;;;;;;;23.33;14.57;;;-4.30;77.20;;;;;;6212929;23;20001;-66
2021/12/28 06:45:35;;;;;;;22.17;14.50;;;-4.30;76.80;;;;;;6212483;23;20001;-66
2021/12/28 06:48:01;;;;;;;24.20;15.00;;;-4.30;76.80;;;;;;6212769;23;19996;-65
2021/12/28 06:50:26;;;;;;;24.98;15.15;;;-4.30;76.40;;;;;;6212771;23;20036;-65
2021/12/28 06:52:52;;;;;;;22.50;14.20;;;-4.30;76.40;;;;;;6212865;23;20007;-67
2021/12/28 06:55:18;;;;;;;23.80;14.38;;;-4.30;76.20;;;;;;6212593;23;20008;-65
2021/12/28 06:57:43;;;;;;;24.23;14.48;;;-4.30;76.20;;;;;;6212516;23;20005;-67
2021/12/28 07:00:14;;;;;;;22.90;14.45;;;-4.20;75.90;;;;;;6212739;23;20119;-66
2021/12/28 07:02:41;;;;;;;23.42;13.68;;;-4.30;75.90;;;;;;6212150;23;20067;-65
2021/12/28 07:05:08;;;;;;;24.60;14.32;;;-4.30;76.00;;;;;;6212093;23;20000;-66
2021/12/28 07:07:35;;;;;;;23.55;14.48;;;-4.30;75.90;;;;;;6214375;23;20011;-67
2021/12/28 07:10:01;;;;;;;23.25;14.82;;;-4.30;76.70;;;;;;6214297;23;20001;-67
2021/12/28 07:12:26;;;;;;;23.27;13.80;;;-4.30;76.00;;;;;;6212116;23;20015;-66
2021/12/28 07:14:53;;;;;;;23.27;14.45;;;-4.20;76.70;;;;;;6213315;23;20007;-66
2021/12/28 07:17:18;;;;;;;21.77;14.40;;;-4.20;75.80;;;;;;6213909;23;20011;-65
2021/12/28 07:19:46;;;;;;;23.63;14.90;;;-4.20;75.60;;;;;;6213791;23;20071;-65
2021/12/28 07:22:12;;;;;;;22.95;13.85;;;-4.20;75.50;;;;;;6214098;23;20003;-65
2021/12/28 07:24:37;;;;;;;24.45;14.70;;;-4.20;75.60;;;;;;6213974;23;20029;-65
2021/12/28 07:27:04;;;;;;;22.52;14.00;;;-4.20;75.10;;;;;;6214191;23;20031;-66
2021/12/28 07:29:29;;;;;;;23.95;14.00;;;-4.20;75.20;;;;;;6214770;23;20749;-66
2021/12/28 07:31:55;;;;;;;23.02;13.82;;;-4.20;75.70;;;;;;6214327;23;20004;-66
2021/12/28 07:34:21;;;;;;;25.65;14.43;;;-4.20;75.00;;;;;;6214371;23;20001;-66
2021/12/28 07:36:47;;;;;;;22.90;13.88;;;-4.20;74.90;;;;;;6214101;23;20008;-66
2021/12/28 07:39:13;;;;;;;21.50;13.50;;;-4.20;75.00;;;;;;6213904;23;20000;-66
2021/12/28 07:41:39;;;;;;;23.10;14.48;;;-4.20;75.10;;;;;;6214296;23;20043;-66
2021/12/28 07:44:05;;;;;;;22.63;14.23;;;-4.20;74.80;;;;;;6213588;23;20079;-67
2021/12/28 07:46:31;;;;;;;22.27;13.57;;;-4.20;74.50;;;;;;6213452;23;19996;-66
2021/12/28 07:48:56;;;;;;;20.38;13.50;;;-4.20;74.50;;;;;;6213708;23;20055;-65
2021/12/28 07:51:22;;;;;;;21.10;12.75;;;-4.20;74.70;;;;;;6214098;23;20079;-66
2021/12/28 07:53:48;;;;;;;20.10;12.88;;;-4.20;75.00;;;;;;6213679;23;19997;-66
2021/12/28 07:56:14;;;;;;;21.10;13.30;;;-4.20;74.80;;;;;;6213394;23;20007;-66
2021/12/28 07:58:40;;;;;;;22.58;13.80;;;-4.20;74.50;;;;;;6213605;23;20004;-65
2021/12/28 08:01:05;;;;;;;20.10;12.55;;;-4.10;74.70;;;;;;6213806;23;19997;-67
2021/12/28 08:03:31;;;;;;;20.17;12.35;;;-4.10;74.70;;;;;;6213318;23;19997;-66
2021/12/28 08:05:57;;;;;;;18.20;12.38;;;-4.10;74.50;;;;;;6213136;23;20004;-66
2021/12/28 08:08:22;;;;;;;21.42;13.27;;;-4.00;74.10;;;;;;6213181;23;20008;-67
2021/12/28 08:10:48;;;;;;;20.80;12.88;;;-4.00;74.00;;;;;;6213516;23;20001;-66
2021/12/28 08:13:16;;;;;;;26.27;14.35;;;-4.00;73.40;;;;;;6213505;23;20005;-67
2021/12/28 08:15:43;;;;;;;21.65;13.15;;;-4.00;72.50;;;;;;6213967;23;20011;-66
2021/12/28 08:18:09;;;;;;;20.55;12.35;;;-4.00;72.60;;;;;;6213116;23;20004;-66
2021/12/28 08:20:37;;;;;;;18.52;11.57;;;-4.00;72.20;;;;;;6213375;23;20005;-66
2021/12/28 08:23:03;;;;;;;18.90;11.50;;;-4.00;72.50;;;;;;6213573;23;20000;-66
2021/12/28 08:25:29;;;;;;;17.48;11.15;;;-3.90;72.30;;;;;;6213212;23;20015;-66
2021/12/28 08:27:56;;;;;;;18.48;11.55;;;-3.90;71.70;;;;;;6213174;23;20012;-66
2021/12/28 08:30:22;;;;;;;20.02;11.40;;;-3.80;71.30;;;;;;6212124;23;20055;-66
2021/12/28 08:32:48;;;;;;;16.85;10.88;;;-3.90;71.20;;;;;;6210762;23;20005;-66
2021/12/28 08:35:15;;;;;;;16.40;10.40;;;-3.80;70.60;;;;;;6212971;23;20007;-66
2021/12/28 08:37:41;;;;;;;19.23;10.85;;;-3.80;70.70;;;;;;6212967;23;20404;-66
2021/12/28 08:40:08;;;;;;;16.67;10.15;;;-3.80;70.30;;;;;;6212941;23;19997;-65
2021/12/28 08:42:34;;;;;;;18.02;9.60;;;-3.80;69.70;;;;;;6186792;23;20447;-66
2021/12/28 08:45:00;;;;;;;17.65;10.38;;;-3.80;69.20;;;;;;6213416;23;20005;-64
2021/12/28 08:47:27;;;;;;;17.75;10.23;;;-3.80;68.80;;;;;;6213545;23;20005;-66
2021/12/28 08:49:57;;;;;;;18.77;9.90;;;-3.80;68.80;;;;;;6213811;23;20008;-66
2021/12/28 08:52:23;;;;;;;21.60;9.60;;;-3.80;68.40;;;;;;6213169;23;20030;-67
2021/12/28 08:54:49;;;;;;;19.52;9.80;;;-3.80;68.70;;;;;;6212872;23;20442;-66
2021/12/28 08:57:16;;;;;;;21.08;9.80;;;-3.90;69.40;;;;;;6212994;23;20004;-66
2021/12/28 08:59:42;;;;;;;20.35;10.57;;;-3.90;70.00;;;;;;6212844;23;20000;-66
2021/12/28 09:02:09;;;;;;;23.20;11.38;;;-3.90;70.60;;;;;;6213007;23;20439;-66
2021/12/28 09:04:39;;;;;;;18.58;10.73;;;-3.90;71.00;;;;;;6212535;23;19997;-66
2021/12/28 09:07:05;;;;;;;19.83;10.38;;;-3.90;71.60;;;;;;6213100;23;20005;-67
2021/12/28 09:09:31;;;;;;;18.75;9.57;;;-4.00;72.30;;;;;;6212408;23;20031;-68
2021/12/28 09:11:56;;;;;;;19.58;11.00;;;-4.00;73.30;;;;;;6213148;23;20001;-65
2021/12/28 09:14:22;;;;;;;20.52;10.50;;;-4.00;74.50;;;;;;6212489;23;20009;-66
2021/12/28 09:16:48;;;;;;;19.05;11.18;;;-4.10;75.30;;;;;;6212433;23;20057;-66
2021/12/28 09:19:13;;;;;;;18.70;10.68;;;-4.10;76.60;;;;;;6212928;23;19997;-65
2021/12/28 09:21:39;;;;;;;18.88;10.60;;;-4.20;77.30;;;;;;6212421;23;20005;-67
2021/12/28 09:24:05;;;;;;;21.30;10.20;;;-4.30;78.20;;;;;;6212866;23;19996;-67
2021/12/28 09:26:33;;;;;;;19.48;11.75;;;-4.30;78.70;;;;;;6212383;23;20077;-67
2021/12/28 09:28:59;;;;;;;21.63;12.60;;;-4.20;79.40;;;;;;6212738;23;20424;-67
2021/12/28 09:31:24;;;;;;;18.30;10.95;;;-4.30;79.60;;;;;;6212724;23;20004;-65
2021/12/28 09:33:50;;;;;;;16.38;10.20;;;-4.30;80.30;;;;;;6213042;23;20124;-66
2021/12/28 09:36:17;;;;;;;17.67;10.23;;;-4.40;80.70;;;;;;6213069;23;19997;-66
2021/12/28 09:38:44;;;;;;;18.02;10.70;;;-4.30;81.10;;;;;;6212877;23;19997;-66
2021/12/28 09:41:12;;;;;;;19.48;11.27;;;-4.30;81.30;;;;;;6213387;23;19997;-67
2021/12/28 09:43:38;;;;;;;17.73;10.68;;;-4.30;81.70;;;;;;6213422;23;20415;-67
2021/12/28 09:46:04;;;;;;;19.95;11.18;;;-4.40;82.00;;;;;;6213085;23;20043;-66
2021/12/28 09:48:31;;;;;;;21.13;12.82;;;-4.40;82.20;;;;;;6212679;23;20119;-65
2021/12/28 09:50:57;;;;;;;22.38;11.70;;;-4.30;82.20;;;;;;6211174;23;20004;-66
2021/12/28 09:53:23;;;;;;;18.45;11.30;;;-4.30;82.30;;;;;;6212286;23;20332;-66
2021/12/28 09:55:49;;;;;;;20.13;11.88;;;-4.30;82.20;;;;;;6212594;23;20008;-66
2021/12/28 09:58:14;;;;;;;20.02;11.63;;;-4.30;82.30;;;;;;6212673;23;20012;-67
2021/12/28 10:00:40;;;;;;;19.92;12.00;;;-4.20;82.40;;;;;;6212450;23;20043;-66
2021/12/28 10:03:06;;;;;;;17.20;10.43;;;-4.20;82.50;;;;;;6212207;23;20027;-67
2021/12/28 10:05:33;;;;;;;17.40;10.68;;;-4.20;82.40;;;;;;6212182;23;20035;-68
2021/12/28 10:08:00;;;;;;;18.52;10.65;;;-4.20;82.50;;;;;;6212488;23;20009;-66
2021/12/28 10:10:35;;;;;;;19.10;10.60;;;-4.20;82.50;;;;;;6212116;23;20067;-67
2021/12/28 10:13:05;;;;;;;19.20;11.15;;;-4.30;82.60;;;;;;6211955;23;20345;-66
2021/12/28 10:15:35;;;;;;;18.35;10.63;;;-4.30;83.30;;;;;;6212289;23;20083;-65
2021/12/28 10:18:06;;;;;;;19.15;10.55;;;-4.30;83.80;;;;;;6212057;23;20005;-67
2021/12/28 10:20:41;;;;;;;19.13;11.57;;;-4.30;83.90;;;;;;6212354;23;20408;-66
2021/12/28 10:23:13;;;;;;;18.15;10.57;;;-4.30;84.00;;;;;;6212465;23;20000;-65
2021/12/28 10:26:02;;;;;;;18.75;11.38;;;-4.30;84.50;;;;;;6211933;23;20005;-65
2021/12/28 10:28:37;;;;;;;18.77;11.40;;;-4.40;84.50;;;;;;6212635;23;20100;-66
2021/12/28 10:31:07;;;;;;;20.20;12.45;;;-4.30;84.20;;;;;;6212562;23;20005;-67
2021/12/28 10:33:36;;;;;;;17.65;10.60;;;-4.40;84.30;;;;;;6211587;23;20284;-66
2021/12/28 10:36:14;;;;;;;17.50;10.80;;;-4.40;84.90;;;;;;6212486;23;20627;-66
2021/12/28 10:38:46;;;;;;;17.98;10.52;;;-4.40;85.10;;;;;;6212073;23;20074;-66
2021/12/28 10:41:15;;;;;;;19.13;11.73;;;-4.40;85.00;;;;;;6212700;23;20401;-66
2021/12/28 10:43:45;;;;;;;18.23;11.40;;;-4.40;84.80;;;;;;6214396;23;20012;-66
2021/12/28 10:46:25;;;;;;;17.45;11.48;;;-4.40;85.20;;;;;;6214591;23;20063;-66
2021/12/28 10:48:58;;;;;;;18.77;11.23;;;-4.40;85.20;;;;;;6214550;23;20016;-66
2021/12/28 10:51:29;;;;;;;18.30;11.38;;;-4.40;85.30;;;;;;6214435;23;20028;-64
2021/12/28 10:56:30;;;;;;;18.15;11.50;;;-4.40;85.80;;;;;;6224833;23;20084;-66
2021/12/28 10:58:55;;;;;;;17.38;10.13;;;-4.40;85.70;;;;;;6214363;23;20416;-67
2021/12/28 11:01:33;;;;;;;16.52;10.20;;;-4.40;86.40;;;;;;6214687;23;20054;-66
2021/12/28 11:04:03;;;;;;;19.38;11.30;;;-4.40;86.70;;;;;;6214592;23;19997;-66
2021/12/28 11:06:35;;;;;;;19.27;11.50;;;-4.40;87.30;;;;;;6214334;23;20008;-66
2021/12/28 11:09:07;;;;;;;18.90;10.73;;;-4.30;87.20;;;;;;6214089;23;20004;-66
2021/12/28 11:11:34;;;;;;;16.00;10.07;;;-4.40;88.40;;;;;;6214201;23;20027;-66
2021/12/28 11:14:06;;;;;;;18.13;10.48;;;-4.40;89.10;;;;;;6213563;23;20328;-65
2021/12/28 11:16:33;;;;;;;19.90;11.63;;;-4.40;88.90;;;;;;6214026;23;20012;-67
2021/12/28 11:19:02;;;;;;;19.13;11.27;;;-4.30;89.00;;;;;;6214324;23;20080;-66
2021/12/28 11:21:35;;;;;;;20.30;12.20;;;-4.40;89.00;;;;;;6213972;23;20000;-65
2021/12/28 11:24:13;;;;;;;;;;;-4.40;88.90;;;;;;6214339;23;20367;-66
2021/12/28 11:26:42;;;;;;;18.17;10.73;;;-4.40;88.50;;;;;;6213847;23;19986;-67
2021/12/28 11:29:11;;;;;;;18.55;11.55;;;-4.40;89.70;;;;;;6214126;23;20004;-67
2021/12/28 11:31:50;;;;;;;16.17;10.60;;;-4.40;89.40;;;;;;6214182;23;20001;-66
2021/12/28 11:34:39;;;;;;;17.52;10.77;;;-4.40;89.50;;;;;;6214513;23;20008;-67
2021/12/28 11:37:20;;;;;;;17.67;10.90;;;-4.40;89.30;;;;;;6214075;23;20076;-68
2021/12/28 11:39:50;;;;;;;18.55;11.55;;;-4.40;89.00;;;;;;6214321;23;19997;-65
2021/12/28 11:42:17;;;;;;;17.10;11.05;;;-4.40;88.80;;;;;;6213951;23;20490;-66
2021/12/28 11:44:44;;;;;;;19.15;11.95;;;-4.40;89.30;;;;;;6213980;23;20030;-65
2021/12/28 11:47:13;;;;;;;17.98;11.23;;;-4.50;89.10;;;;;;6187451;23;20013;-67
2021/12/28 11:49:41;;;;;;;17.60;11.35;;;-4.50;89.30;;;;;;6214357;23;20001;-67
2021/12/28 11:52:10;;;;;;;19.40;11.68;;;-4.50;89.80;;;;;;6214107;23;20451;-67
2021/12/28 11:54:45;;;;;;;20.85;12.38;;;-4.60;90.00;;;;;;6213707;23;20005;-67
2021/12/28 11:57:18;;;;;;;20.83;12.68;;;-4.50;90.10;;;;;;6213909;23;20032;-67
2021/12/28 11:59:59;;;;;;;23.55;13.57;;;-4.60;90.00;;;;;;6214127;23;20301;-66
2021/12/28 12:02:45;;;;;;;23.15;14.20;;;-4.50;89.60;;;;;;6214169;23;20421;-68
2021/12/28 12:05:17;;;;;;;24.08;13.63;;;-4.60;89.60;;;;;;6187418;23;20008;-67
2021/12/28 12:07:43;;;;;;;23.80;14.38;;;-4.60;89.60;;;;;;6214187;23;20005;-67
2021/12/28 12:10:12;;;;;;;25.35;14.63;;;-4.60;90.20;;;;;;6213666;23;20020;-68
2021/12/28 12:12:48;;;;;;;23.70;14.57;;;-4.60;89.90;;;;;;6214023;23;20099;-67
2021/12/28 12:15:16;;;;;;;21.88;14.00;;;-4.70;90.00;;;;;;6213918;23;20011;-67
2021/12/28 12:17:43;;;;;;;22.85;13.40;;;-4.60;90.00;;;;;;6213225;23;20010;-66
2021/12/28 12:20:29;;;;;;;21.20;13.13;;;-4.70;89.90;;;;;;6213785;23;20032;-67
2021/12/28 12:23:12;;;;;;;20.05;12.57;;;-4.70;89.80;;;;;;6213782;23;20380;-66
2021/12/28 12:25:53;;;;;;;21.50;12.77;;;-4.70;90.10;;;;;;6213169;23;20012;-66
2021/12/28 12:28:31;;;;;;;21.30;12.57;;;-4.60;89.60;;;;;;6214042;23;20102;-66
2021/12/28 12:30:58;;;;;;;20.40;12.43;;;-4.70;89.90;;;;;;6213684;23;20050;-67
2021/12/28 12:33:37;;;;;;;18.98;11.68;;;-4.70;90.00;;;;;;6213601;23;20000;-67
2021/12/28 12:36:04;;;;;;;21.30;12.60;;;-4.80;90.10;;;;;;6213669;23;20005;-67